Grosse Pointe Woods, Michigan
Current Conditions -  °F | °C
As of 11:00 AM on Monday 24 Nov 2014 (Local Time) from KDET Reporting Station
Light Rain Light Rain  
Wind Chill: 56°   Ceiling: 2300
Heat Index: 56°   Visibility: 9mi
Dew Point: 51°   Wind: 16mph
Humidity: 84%   Direction: 200°SSW
Pressure: 29.14"   Gusts: 24mph
Location:  42.4243°N, 82.8975°W
Report Text: KDET 241600Z 20014G21KT 9SM -RA FEW013 BKN023 OVC080 13/11 A2914 RMK AO2 P0001 T01330106
Loading
Personal Weather Stations






























Interactive Weather Map New forecast layout! Learn more

10-Day Weather Forecast

Advertisements
Track Severe Weather on mobile